This is the latest recevied weather packets stored in our database for station/object NR0A-4. If no packets are shown the sender has not sent any weather packets the latest 1 day(s).
| Time | Temp. | Humidity | Pressure | Rain* | Wind** | Luminosity | Snow |
|---|---|---|---|---|---|---|---|
| 1777984804 | 5.56° C | 66% | 1012 hPa | 0 mm | 0.89 m/s, 273° | 60 W/m² | - |
| 1777984505 | 5.56° C | 67% | 1011.8 hPa | 0 mm | 0.89 m/s, 290° | 79 W/m² | - |
| 1777984205 | 5.56° C | 67% | 1011.7 hPa | 0 mm | 0.89 m/s, 270° | 40 W/m² | - |
| 1777983904 | 5.56° C | 68% | 1011.4 hPa | 0 mm | 1.34 m/s, 279° | 46 W/m² | - |
| 1777983604 | 5.56° C | 68% | 1011.3 hPa | 0 mm | 0.45 m/s, 275° | 42 W/m² | - |
| 1777983304 | 5.56° C | 68% | 1011.5 hPa | 0 mm | 0.89 m/s, 287° | 33 W/m² | - |
| 1777983015 | 5.56° C | 68% | 1011.5 hPa | 0 mm | 0.45 m/s, 271° | 28 W/m² | - |
| 1777982704 | 5.56° C | 68% | 1011.5 hPa | 0 mm | 0 m/s | 25 W/m² | - |
| 1777982404 | 5.56° C | 67% | 1011.2 hPa | 0 mm | 0.45 m/s, 278° | 23 W/m² | - |
| 1777982104 | 5.56° C | 67% | 1011.1 hPa | 0 mm | 0.89 m/s, 274° | 18 W/m² | - |
| 1777981805 | 5° C | 67% | 1011 hPa | 0 mm | 0.89 m/s, 276° | 7 W/m² | - |
| 1777981504 | 5° C | 67% | 1010.8 hPa | 0 mm | 0.45 m/s, 285° | 7 W/m² | - |
| 1777981204 | 5° C | 67% | 1010.9 hPa | 0 mm | 0.89 m/s, 287° | 7 W/m² | - |
| 1777980904 | 5° C | 68% | 1010.9 hPa | 0 mm | 0.89 m/s, 280° | 0 W/m² | - |
| 1777980604 | 4.44° C | 69% | 1010.8 hPa | 0 mm | 0.45 m/s, 273° | 0 W/m² | - |
| 1777980304 | 4.44° C | 70% | 1010.7 hPa | 0 mm | 0.45 m/s, 284° | 0 W/m² | - |
| 1777980005 | 3.89° C | 70% | 1010.7 hPa | 0 mm | 0.45 m/s, 270° | 0 W/m² | - |
| 1777979704 | 3.89° C | 71% | 1010.7 hPa | 0 mm | 0.45 m/s, 276° | 0 W/m² | - |
| 1777979404 | 3.89° C | 71% | 1010.7 hPa | 0 mm | 0 m/s | 0 W/m² | - |
| 1777979104 | 3.89° C | 71% | 1010.7 hPa | 0 mm | 0 m/s | 0 W/m² | - |
| 1777978804 | 4.44° C | 71% | 1010.6 hPa | 0 mm | 0 m/s | 0 W/m² | - |
| 1777978505 | 4.44° C | 70% | 1010.9 hPa | 0 mm | 0 m/s | 0 W/m² | - |
| 1777978204 | 4.44° C | 70% | 1010.7 hPa | 0 mm | 0 m/s | 0 W/m² | - |
| 1777977903 | 3.89° C | 70% | 1010.8 hPa | 0 mm | 0 m/s | 0 W/m² | - |
| 1777977604 | 3.89° C | 70% | 1010.8 hPa | 0 mm | 0 m/s | 0 W/m² | - |
* Rain latest hour (hover to see other rain measurements)
** Current wind speed in m/s (hover to see current wind gust speed)